Eira — OJJP — position and weather

sailwx.info

Track history (hours):
 
Tides and Currents Weather Stations Pressure Air Temp Water Temp Dewpoint Dewpoint Depression Visibility Wind Speed Wind Dir Waves Ship Positions

Eira

Last reported at 2014-Aug-19 12:32 UTC. Time now 2014-Aug-21 18:07 UTC.
Position N 60°02' E 027°14'.

Length 157 m; draft 6.2 m.

Type: Cargo ship. MMSI: 230935000.

Date/timePositionNaut miles runAvg speedWind from/ knotsBaromVisibWave heightAir tempDewpointWater temp
2014-Aug-19 12:32N 60°02' E 027°14'1512.7
2014-Aug-19 11:21N 59°59' E 026°44'1113.4
2014-Aug-19 10:29N 59°57' E 026°22'7313.4
2014-Aug-19 05:03N 59°40' E 024°01'1213.3
2014-Aug-19 04:10N 59°36' E 023°39'912.6
2014-Aug-19 03:26N 59°35' E 023°21'  
2014-Aug-15 19:10N 59°40' E 023°14'711.0
2014-Aug-15 18:33N 59°41' E 023°27'1110.9
2014-Aug-15 17:33N 59°43' E 023°49'5710.8
2014-Aug-15 12:14N 59°55' E 025°40'811.2
2014-Aug-15 11:32N 59°57' E 025°56'2211.1
2014-Aug-15 09:32N 60°01' E 026°39'8 0.2
2014-Aug-13 20:25N 59°58' E 026°54'1113.1
2014-Aug-13 19:33N 59°58' E 026°32'1413.3
2014-Aug-13 18:31N 59°55' E 026°05'6813.3
2014-Aug-13 13:26N 59°38' E 023°55'1513.3
2014-Aug-13 12:17N 59°33' E 023°26'20210.7
2014-Aug-12 17:28N 58°40' E 017°07'0 0.0
2014-Aug-12 05:04N 58°40' E 017°07'1 0.5
2014-Aug-12 03:26N 58°39' E 017°08'  
Track history (hours):
 
Tides and Currents Weather Stations Pressure Air Temp Water Temp Dewpoint Dewpoint Depression Visibility Wind Speed Wind Dir Waves Ship Positions

Eira

Last reported at 2014-Aug-19 12:32 UTC. Time now 2014-Aug-21 18:07 UTC.
Position N 60°02' E 027°14'.

Length 157 m; draft 6.2 m.

Type: Cargo ship. MMSI: 230935000.

Date/timePositionNaut miles runAvg speedWind from/ knotsBaromVisibWave heightAir tempDewpointWater temp
2014-Aug-19 12:32N 60°02' E 027°14'1512.7
2014-Aug-19 11:21N 59°59' E 026°44'1113.4
2014-Aug-19 10:29N 59°57' E 026°22'7313.4
2014-Aug-19 05:03N 59°40' E 024°01'1213.3
2014-Aug-19 04:10N 59°36' E 023°39'912.6
2014-Aug-19 03:26N 59°35' E 023°21'  
2014-Aug-15 19:10N 59°40' E 023°14'711.0
2014-Aug-15 18:33N 59°41' E 023°27'1110.9
2014-Aug-15 17:33N 59°43' E 023°49'5710.8
2014-Aug-15 12:14N 59°55' E 025°40'811.2
2014-Aug-15 11:32N 59°57' E 025°56'2211.1
2014-Aug-15 09:32N 60°01' E 026°39'8 0.2
2014-Aug-13 20:25N 59°58' E 026°54'1113.1
2014-Aug-13 19:33N 59°58' E 026°32'1413.3
2014-Aug-13 18:31N 59°55' E 026°05'6813.3
2014-Aug-13 13:26N 59°38' E 023°55'1513.3
2014-Aug-13 12:17N 59°33' E 023°26'20210.7
2014-Aug-12 17:28N 58°40' E 017°07'0 0.0
2014-Aug-12 05:04N 58°40' E 017°07'1 0.5
2014-Aug-12 03:26N 58°39' E 017°08'  

Dump ship's entire track history